sensor_id;sensor_type;location;lat;lon;timestamp;P1;durP1;ratioP1;P2;durP2;ratioP2
19782;SDS011;10051;40.294;-3.754;2023-08-20T00:00:58;3.28;;;1.20;;
19782;SDS011;10051;40.294;-3.754;2023-08-20T00:03:26;4.95;;;1.30;;
19782;SDS011;10051;40.294;-3.754;2023-08-20T00:05:52;4.43;;;1.30;;
19782;SDS011;10051;40.294;-3.754;2023-08-20T00:08:18;5.90;;;1.40;;
19782;SDS011;10051;40.294;-3.754;2023-08-20T00:10:44;3.13;;;1.20;;
19782;SDS011;10051;40.294;-3.754;2023-08-20T00:13:09;7.65;;;1.30;;
19782;SDS011;10051;40.294;-3.754;2023-08-20T00:15:35;4.35;;;1.30;;
19782;SDS011;10051;40.294;-3.754;2023-08-20T00:18:02;4.50;;;1.45;;
19782;SDS011;10051;40.294;-3.754;2023-08-20T00:20:29;7.25;;;1.50;;
19782;SDS011;10051;40.294;-3.754;2023-08-20T00:22:55;5.85;;;1.58;;
19782;SDS011;10051;40.294;-3.754;2023-08-20T00:25:25;6.05;;;1.45;;
19782;SDS011;10051;40.294;-3.754;2023-08-20T00:27:52;6.22;;;1.40;;
19782;SDS011;10051;40.294;-3.754;2023-08-20T00:30:18;10.00;;;1.65;;
19782;SDS011;10051;40.294;-3.754;2023-08-20T00:32:44;3.78;;;1.50;;
19782;SDS011;10051;40.294;-3.754;2023-08-20T00:35:13;6.63;;;1.10;;
19782;SDS011;10051;40.294;-3.754;2023-08-20T00:37:42;4.60;;;1.30;;
19782;SDS011;10051;40.294;-3.754;2023-08-20T00:56:41;2.80;;;0.93;;
19782;SDS011;10051;40.294;-3.754;2023-08-20T00:59:19;3.88;;;1.02;;
19782;SDS011;10051;40.294;-3.754;2023-08-20T01:04:59;3.40;;;1.10;;
19782;SDS011;10051;40.294;-3.754;2023-08-20T01:07:31;7.63;;;1.27;;
19782;SDS011;10051;40.294;-3.754;2023-08-20T01:13:14;3.65;;;1.13;;
19782;SDS011;10051;40.294;-3.754;2023-08-20T01:15:41;5.15;;;1.27;;
19782;SDS011;10051;40.294;-3.754;2023-08-20T01:18:07;2.97;;;1.13;;
19782;SDS011;10051;40.294;-3.754;2023-08-20T01:20:35;6.32;;;1.13;;
19782;SDS011;10051;40.294;-3.754;2023-08-20T01:23:10;10.45;;;1.23;;
19782;SDS011;10051;40.294;-3.754;2023-08-20T01:28:25;3.60;;;0.98;;
19782;SDS011;10051;40.294;-3.754;2023-08-20T01:30:52;8.43;;;1.30;;
19782;SDS011;10051;40.294;-3.754;2023-08-20T01:33:19;5.60;;;1.20;;
19782;SDS011;10051;40.294;-3.754;2023-08-20T01:35:45;5.13;;;1.00;;
19782;SDS011;10051;40.294;-3.754;2023-08-20T01:38:11;6.88;;;1.20;;
19782;SDS011;10051;40.294;-3.754;2023-08-20T01:40:37;4.53;;;1.10;;
19782;SDS011;10051;40.294;-3.754;2023-08-20T01:43:03;4.55;;;1.20;;
19782;SDS011;10051;40.294;-3.754;2023-08-20T01:45:28;3.35;;;0.90;;
19782;SDS011;10051;40.294;-3.754;2023-08-20T01:47:54;10.32;;;1.48;;
19782;SDS011;10051;40.294;-3.754;2023-08-20T01:50:20;3.38;;;1.00;;
19782;SDS011;10051;40.294;-3.754;2023-08-20T01:52:46;7.47;;;1.38;;
19782;SDS011;10051;40.294;-3.754;2023-08-20T01:55:12;5.57;;;1.13;;
19782;SDS011;10051;40.294;-3.754;2023-08-20T01:57:38;4.35;;;1.10;;
19782;SDS011;10051;40.294;-3.754;2023-08-20T02:00:04;5.10;;;1.10;;
19782;SDS011;10051;40.294;-3.754;2023-08-20T02:02:32;4.65;;;1.00;;
19782;SDS011;10051;40.294;-3.754;2023-08-20T02:04:58;5.40;;;1.20;;
19782;SDS011;10051;40.294;-3.754;2023-08-20T02:07:27;4.45;;;1.30;;
19782;SDS011;10051;40.294;-3.754;2023-08-20T02:09:54;4.78;;;1.20;;
19782;SDS011;10051;40.294;-3.754;2023-08-20T02:12:27;3.53;;;1.08;;
19782;SDS011;10051;40.294;-3.754;2023-08-20T02:14:59;5.82;;;1.38;;
19782;SDS011;10051;40.294;-3.754;2023-08-20T02:17:26;4.40;;;1.20;;
19782;SDS011;10051;40.294;-3.754;2023-08-20T02:23:14;8.38;;;1.15;;
19782;SDS011;10051;40.294;-3.754;2023-08-20T02:25:46;6.45;;;1.13;;
19782;SDS011;10051;40.294;-3.754;2023-08-20T02:28:13;4.78;;;1.20;;
19782;SDS011;10051;40.294;-3.754;2023-08-20T02:30:45;3.88;;;1.40;;
19782;SDS011;10051;40.294;-3.754;2023-08-20T02:36:32;5.43;;;1.10;;
19782;SDS011;10051;40.294;-3.754;2023-08-20T02:42:20;4.85;;;1.25;;
19782;SDS011;10051;40.294;-3.754;2023-08-20T02:44:46;5.10;;;1.30;;
19782;SDS011;10051;40.294;-3.754;2023-08-20T02:47:12;6.28;;;1.27;;
19782;SDS011;10051;40.294;-3.754;2023-08-20T02:49:38;4.03;;;1.20;;
19782;SDS011;10051;40.294;-3.754;2023-08-20T02:52:04;4.95;;;1.42;;
19782;SDS011;10051;40.294;-3.754;2023-08-20T02:54:30;3.30;;;1.17;;
19782;SDS011;10051;40.294;-3.754;2023-08-20T02:56:57;4.55;;;1.40;;
19782;SDS011;10051;40.294;-3.754;2023-08-20T02:59:23;4.45;;;1.20;;
19782;SDS011;10051;40.294;-3.754;2023-08-20T03:01:49;5.18;;;1.40;;
19782;SDS011;10051;40.294;-3.754;2023-08-20T03:04:15;3.40;;;1.20;;
19782;SDS011;10051;40.294;-3.754;2023-08-20T03:06:41;10.82;;;2.13;;
19782;SDS011;10051;40.294;-3.754;2023-08-20T03:09:06;5.30;;;1.58;;
19782;SDS011;10051;40.294;-3.754;2023-08-20T03:11:32;12.20;;;1.60;;
19782;SDS011;10051;40.294;-3.754;2023-08-20T03:13:58;6.28;;;1.45;;
19782;SDS011;10051;40.294;-3.754;2023-08-20T03:16:23;5.85;;;1.40;;
19782;SDS011;10051;40.294;-3.754;2023-08-20T03:18:49;5.15;;;1.30;;
19782;SDS011;10051;40.294;-3.754;2023-08-20T03:21:15;5.85;;;1.33;;
19782;SDS011;10051;40.294;-3.754;2023-08-20T03:23:40;8.40;;;1.30;;
19782;SDS011;10051;40.294;-3.754;2023-08-20T03:26:06;10.52;;;1.65;;
19782;SDS011;10051;40.294;-3.754;2023-08-20T03:28:32;5.18;;;1.40;;
19782;SDS011;10051;40.294;-3.754;2023-08-20T03:31:00;6.60;;;1.30;;
19782;SDS011;10051;40.294;-3.754;2023-08-20T03:33:27;9.35;;;1.40;;
19782;SDS011;10051;40.294;-3.754;2023-08-20T03:35:53;6.63;;;1.50;;
19782;SDS011;10051;40.294;-3.754;2023-08-20T03:38:18;6.45;;;1.45;;
19782;SDS011;10051;40.294;-3.754;2023-08-20T03:40:44;9.75;;;1.80;;
19782;SDS011;10051;40.294;-3.754;2023-08-20T03:43:10;13.00;;;1.95;;
19782;SDS011;10051;40.294;-3.754;2023-08-20T03:45:36;6.15;;;1.67;;
19782;SDS011;10051;40.294;-3.754;2023-08-20T03:48:06;6.68;;;1.45;;
19782;SDS011;10051;40.294;-3.754;2023-08-20T03:50:32;6.45;;;1.40;;
19782;SDS011;10051;40.294;-3.754;2023-08-20T03:53:01;7.57;;;1.75;;
19782;SDS011;10051;40.294;-3.754;2023-08-20T03:55:27;7.78;;;1.77;;
19782;SDS011;10051;40.294;-3.754;2023-08-20T03:58:05;10.45;;;1.70;;
19782;SDS011;10051;40.294;-3.754;2023-08-20T04:01:42;7.75;;;1.60;;
19782;SDS011;10051;40.294;-3.754;2023-08-20T04:14:07;6.55;;;1.60;;
19782;SDS011;10051;40.294;-3.754;2023-08-20T04:16:42;7.28;;;1.58;;
19782;SDS011;10051;40.294;-3.754;2023-08-20T04:19:17;5.72;;;1.60;;
19782;SDS011;10051;40.294;-3.754;2023-08-20T04:21:43;6.13;;;1.55;;
19782;SDS011;10051;40.294;-3.754;2023-08-20T04:24:09;4.40;;;1.67;;
19782;SDS011;10051;40.294;-3.754;2023-08-20T04:26:34;6.72;;;1.70;;
19782;SDS011;10051;40.294;-3.754;2023-08-20T04:29:00;6.65;;;1.67;;
19782;SDS011;10051;40.294;-3.754;2023-08-20T04:31:27;10.32;;;1.58;;
19782;SDS011;10051;40.294;-3.754;2023-08-20T04:33:52;5.15;;;1.73;;
19782;SDS011;10051;40.294;-3.754;2023-08-20T04:36:19;7.60;;;1.60;;
19782;SDS011;10051;40.294;-3.754;2023-08-20T04:38:46;13.75;;;1.80;;
19782;SDS011;10051;40.294;-3.754;2023-08-20T04:41:11;9.05;;;2.03;;
19782;SDS011;10051;40.294;-3.754;2023-08-20T04:43:37;7.88;;;1.65;;
19782;SDS011;10051;40.294;-3.754;2023-08-20T04:46:03;9.75;;;1.70;;
19782;SDS011;10051;40.294;-3.754;2023-08-20T04:48:29;8.23;;;1.70;;
19782;SDS011;10051;40.294;-3.754;2023-08-20T04:50:54;5.43;;;1.50;;
19782;SDS011;10051;40.294;-3.754;2023-08-20T04:53:20;9.32;;;1.60;;
19782;SDS011;10051;40.294;-3.754;2023-08-20T04:55:45;8.75;;;1.70;;
19782;SDS011;10051;40.294;-3.754;2023-08-20T04:58:11;8.98;;;1.80;;
19782;SDS011;10051;40.294;-3.754;2023-08-20T05:00:37;10.57;;;2.05;;
19782;SDS011;10051;40.294;-3.754;2023-08-20T05:03:03;10.27;;;1.90;;
19782;SDS011;10051;40.294;-3.754;2023-08-20T05:05:29;5.80;;;1.70;;
19782;SDS011;10051;40.294;-3.754;2023-08-20T05:07:54;5.18;;;1.63;;
19782;SDS011;10051;40.294;-3.754;2023-08-20T05:10:20;7.88;;;1.90;;
19782;SDS011;10051;40.294;-3.754;2023-08-20T05:12:46;9.70;;;2.05;;
19782;SDS011;10051;40.294;-3.754;2023-08-20T05:15:12;6.78;;;2.10;;
19782;SDS011;10051;40.294;-3.754;2023-08-20T05:17:40;5.03;;;1.90;;
19782;SDS011;10051;40.294;-3.754;2023-08-20T05:20:06;7.40;;;2.00;;
19782;SDS011;10051;40.294;-3.754;2023-08-20T05:22:34;4.57;;;1.60;;
19782;SDS011;10051;40.294;-3.754;2023-08-20T05:24:59;8.45;;;1.80;;
19782;SDS011;10051;40.294;-3.754;2023-08-20T05:27:26;3.65;;;1.60;;
19782;SDS011;10051;40.294;-3.754;2023-08-20T05:29:58;8.57;;;1.80;;
19782;SDS011;10051;40.294;-3.754;2023-08-20T05:32:28;5.15;;;1.60;;
19782;SDS011;10051;40.294;-3.754;2023-08-20T05:45:26;8.07;;;1.80;;
19782;SDS011;10051;40.294;-3.754;2023-08-20T05:47:56;5.68;;;1.48;;
19782;SDS011;10051;40.294;-3.754;2023-08-20T05:50:39;8.32;;;1.60;;
19782;SDS011;10051;40.294;-3.754;2023-08-20T05:56:00;5.10;;;2.00;;
19782;SDS011;10051;40.294;-3.754;2023-08-20T05:58:25;7.55;;;1.80;;
19782;SDS011;10051;40.294;-3.754;2023-08-20T06:00:51;6.30;;;1.70;;
19782;SDS011;10051;40.294;-3.754;2023-08-20T06:03:18;11.15;;;2.00;;
19782;SDS011;10051;40.294;-3.754;2023-08-20T06:05:43;7.53;;;1.80;;
19782;SDS011;10051;40.294;-3.754;2023-08-20T06:08:09;8.75;;;1.90;;
19782;SDS011;10051;40.294;-3.754;2023-08-20T06:10:35;6.60;;;1.98;;
19782;SDS011;10051;40.294;-3.754;2023-08-20T06:13:01;7.03;;;2.03;;
19782;SDS011;10051;40.294;-3.754;2023-08-20T06:15:26;9.88;;;2.10;;
19782;SDS011;10051;40.294;-3.754;2023-08-20T06:17:52;5.82;;;1.90;;
19782;SDS011;10051;40.294;-3.754;2023-08-20T06:20:18;10.75;;;1.98;;
19782;SDS011;10051;40.294;-3.754;2023-08-20T06:22:44;8.30;;;1.95;;
19782;SDS011;10051;40.294;-3.754;2023-08-20T06:25:10;7.85;;;1.80;;
19782;SDS011;10051;40.294;-3.754;2023-08-20T06:27:35;6.72;;;2.05;;
19782;SDS011;10051;40.294;-3.754;2023-08-20T06:30:01;12.27;;;1.80;;
19782;SDS011;10051;40.294;-3.754;2023-08-20T06:32:27;8.27;;;2.05;;
19782;SDS011;10051;40.294;-3.754;2023-08-20T06:34:53;9.60;;;1.90;;
19782;SDS011;10051;40.294;-3.754;2023-08-20T06:37:19;8.10;;;2.05;;
19782;SDS011;10051;40.294;-3.754;2023-08-20T06:39:44;10.98;;;2.10;;
19782;SDS011;10051;40.294;-3.754;2023-08-20T06:42:10;9.13;;;2.00;;
19782;SDS011;10051;40.294;-3.754;2023-08-20T06:44:36;9.90;;;2.10;;
19782;SDS011;10051;40.294;-3.754;2023-08-20T06:47:01;9.70;;;2.13;;
19782;SDS011;10051;40.294;-3.754;2023-08-20T06:49:27;15.48;;;2.63;;
19782;SDS011;10051;40.294;-3.754;2023-08-20T06:51:53;6.07;;;2.05;;
19782;SDS011;10051;40.294;-3.754;2023-08-20T06:54:19;9.48;;;2.10;;
19782;SDS011;10051;40.294;-3.754;2023-08-20T06:56:44;14.13;;;2.10;;
19782;SDS011;10051;40.294;-3.754;2023-08-20T06:59:10;8.70;;;2.00;;
19782;SDS011;10051;40.294;-3.754;2023-08-20T07:01:36;9.05;;;2.05;;
19782;SDS011;10051;40.294;-3.754;2023-08-20T07:04:02;9.30;;;2.10;;
19782;SDS011;10051;40.294;-3.754;2023-08-20T07:06:27;8.30;;;2.28;;
19782;SDS011;10051;40.294;-3.754;2023-08-20T07:08:54;8.38;;;2.40;;
19782;SDS011;10051;40.294;-3.754;2023-08-20T07:11:21;13.73;;;2.53;;
19782;SDS011;10051;40.294;-3.754;2023-08-20T07:13:47;11.27;;;1.95;;
19782;SDS011;10051;40.294;-3.754;2023-08-20T07:16:13;8.65;;;2.10;;
19782;SDS011;10051;40.294;-3.754;2023-08-20T07:18:43;8.50;;;2.10;;
19782;SDS011;10051;40.294;-3.754;2023-08-20T07:21:11;5.72;;;2.10;;
19782;SDS011;10051;40.294;-3.754;2023-08-20T07:23:42;6.80;;;2.17;;
19782;SDS011;10051;40.294;-3.754;2023-08-20T07:26:14;6.60;;;1.88;;
19782;SDS011;10051;40.294;-3.754;2023-08-20T07:28:42;5.68;;;1.75;;
19782;SDS011;10051;40.294;-3.754;2023-08-20T07:31:23;12.93;;;2.00;;
19782;SDS011;10051;40.294;-3.754;2023-08-20T07:33:50;6.57;;;1.88;;
19782;SDS011;10051;40.294;-3.754;2023-08-20T07:36:16;5.60;;;1.95;;
19782;SDS011;10051;40.294;-3.754;2023-08-20T07:38:43;9.65;;;2.30;;
19782;SDS011;10051;40.294;-3.754;2023-08-20T07:41:09;9.68;;;2.13;;
19782;SDS011;10051;40.294;-3.754;2023-08-20T07:43:39;6.55;;;2.33;;
19782;SDS011;10051;40.294;-3.754;2023-08-20T07:46:06;9.57;;;2.55;;
19782;SDS011;10051;40.294;-3.754;2023-08-20T07:48:33;8.35;;;2.08;;
19782;SDS011;10051;40.294;-3.754;2023-08-20T07:50:59;6.22;;;2.28;;
19782;SDS011;10051;40.294;-3.754;2023-08-20T07:53:25;12.23;;;2.38;;
19782;SDS011;10051;40.294;-3.754;2023-08-20T07:55:51;7.65;;;2.28;;
19782;SDS011;10051;40.294;-3.754;2023-08-20T07:58:17;9.27;;;2.28;;
19782;SDS011;10051;40.294;-3.754;2023-08-20T08:00:43;12.00;;;2.40;;
19782;SDS011;10051;40.294;-3.754;2023-08-20T08:03:08;9.02;;;2.13;;
19782;SDS011;10051;40.294;-3.754;2023-08-20T08:05:35;12.38;;;2.30;;
19782;SDS011;10051;40.294;-3.754;2023-08-20T08:08:01;11.70;;;2.63;;
19782;SDS011;10051;40.294;-3.754;2023-08-20T08:10:27;8.98;;;2.35;;
19782;SDS011;10051;40.294;-3.754;2023-08-20T08:12:54;6.05;;;2.17;;
19782;SDS011;10051;40.294;-3.754;2023-08-20T08:15:27;10.48;;;2.50;;
19782;SDS011;10051;40.294;-3.754;2023-08-20T08:17:52;7.32;;;1.98;;
19782;SDS011;10051;40.294;-3.754;2023-08-20T08:20:18;9.55;;;2.13;;
19782;SDS011;10051;40.294;-3.754;2023-08-20T08:22:44;7.07;;;2.03;;
19782;SDS011;10051;40.294;-3.754;2023-08-20T08:25:09;8.55;;;2.60;;
19782;SDS011;10051;40.294;-3.754;2023-08-20T08:27:36;9.95;;;2.40;;
19782;SDS011;10051;40.294;-3.754;2023-08-20T08:30:02;12.52;;;2.70;;
19782;SDS011;10051;40.294;-3.754;2023-08-20T08:32:28;10.45;;;2.38;;
19782;SDS011;10051;40.294;-3.754;2023-08-20T08:34:54;6.82;;;2.40;;
19782;SDS011;10051;40.294;-3.754;2023-08-20T08:37:23;10.45;;;2.58;;
19782;SDS011;10051;40.294;-3.754;2023-08-20T08:39:49;15.50;;;2.60;;
19782;SDS011;10051;40.294;-3.754;2023-08-20T08:42:15;13.00;;;2.20;;
19782;SDS011;10051;40.294;-3.754;2023-08-20T08:44:54;8.98;;;2.20;;
19782;SDS011;10051;40.294;-3.754;2023-08-20T08:47:30;7.45;;;2.00;;
19782;SDS011;10051;40.294;-3.754;2023-08-20T08:50:00;8.55;;;2.08;;
19782;SDS011;10051;40.294;-3.754;2023-08-20T08:52:30;5.88;;;1.85;;
19782;SDS011;10051;40.294;-3.754;2023-08-20T08:54:57;8.73;;;1.85;;
19782;SDS011;10051;40.294;-3.754;2023-08-20T08:57:25;10.65;;;1.90;;
19782;SDS011;10051;40.294;-3.754;2023-08-20T08:59:55;4.88;;;1.63;;
19782;SDS011;10051;40.294;-3.754;2023-08-20T09:02:21;8.15;;;1.75;;
19782;SDS011;10051;40.294;-3.754;2023-08-20T09:04:51;5.50;;;1.80;;
19782;SDS011;10051;40.294;-3.754;2023-08-20T09:07:19;13.57;;;1.70;;
19782;SDS011;10051;40.294;-3.754;2023-08-20T09:09:45;7.93;;;1.80;;
19782;SDS011;10051;40.294;-3.754;2023-08-20T09:12:14;10.25;;;1.80;;
19782;SDS011;10051;40.294;-3.754;2023-08-20T09:14:50;7.45;;;1.70;;
19782;SDS011;10051;40.294;-3.754;2023-08-20T09:17:17;7.82;;;1.88;;
19782;SDS011;10051;40.294;-3.754;2023-08-20T09:19:45;8.70;;;1.80;;
19782;SDS011;10051;40.294;-3.754;2023-08-20T09:22:11;6.22;;;1.73;;
19782;SDS011;10051;40.294;-3.754;2023-08-20T09:24:42;10.30;;;1.83;;
19782;SDS011;10051;40.294;-3.754;2023-08-20T09:27:13;10.27;;;2.30;;
19782;SDS011;10051;40.294;-3.754;2023-08-20T09:29:46;6.32;;;1.60;;
19782;SDS011;10051;40.294;-3.754;2023-08-20T09:32:21;9.43;;;1.77;;
19782;SDS011;10051;40.294;-3.754;2023-08-20T09:34:49;7.90;;;1.85;;
19782;SDS011;10051;40.294;-3.754;2023-08-20T09:37:17;11.98;;;1.75;;
19782;SDS011;10051;40.294;-3.754;2023-08-20T09:39:44;10.90;;;1.77;;
19782;SDS011;10051;40.294;-3.754;2023-08-20T09:42:11;8.68;;;2.00;;
19782;SDS011;10051;40.294;-3.754;2023-08-20T09:44:44;8.65;;;1.83;;
19782;SDS011;10051;40.294;-3.754;2023-08-20T09:47:17;6.05;;;2.10;;
19782;SDS011;10051;40.294;-3.754;2023-08-20T09:49:47;6.55;;;1.85;;
19782;SDS011;10051;40.294;-3.754;2023-08-20T09:52:16;6.82;;;1.70;;
19782;SDS011;10051;40.294;-3.754;2023-08-20T09:55:00;6.43;;;2.00;;
19782;SDS011;10051;40.294;-3.754;2023-08-20T09:57:34;6.07;;;1.80;;
19782;SDS011;10051;40.294;-3.754;2023-08-20T10:00:02;6.78;;;1.98;;
19782;SDS011;10051;40.294;-3.754;2023-08-20T10:02:36;4.93;;;1.70;;
19782;SDS011;10051;40.294;-3.754;2023-08-20T10:05:06;11.02;;;1.85;;
19782;SDS011;10051;40.294;-3.754;2023-08-20T10:07:33;4.57;;;1.90;;
19782;SDS011;10051;40.294;-3.754;2023-08-20T10:10:07;5.88;;;1.88;;
19782;SDS011;10051;40.294;-3.754;2023-08-20T10:12:35;8.07;;;1.90;;
19782;SDS011;10051;40.294;-3.754;2023-08-20T10:15:04;12.20;;;2.30;;
19782;SDS011;10051;40.294;-3.754;2023-08-20T10:17:33;5.95;;;1.92;;
19782;SDS011;10051;40.294;-3.754;2023-08-20T10:20:01;5.93;;;1.88;;
19782;SDS011;10051;40.294;-3.754;2023-08-20T10:22:35;6.32;;;1.77;;
19782;SDS011;10051;40.294;-3.754;2023-08-20T10:25:06;9.32;;;1.92;;
19782;SDS011;10051;40.294;-3.754;2023-08-20T10:27:47;7.03;;;1.80;;
19782;SDS011;10051;40.294;-3.754;2023-08-20T10:30:23;7.97;;;2.03;;
19782;SDS011;10051;40.294;-3.754;2023-08-20T10:32:53;9.10;;;1.90;;
19782;SDS011;10051;40.294;-3.754;2023-08-20T10:38:25;5.68;;;1.90;;
19782;SDS011;10051;40.294;-3.754;2023-08-20T10:41:30;7.68;;;1.77;;
19782;SDS011;10051;40.294;-3.754;2023-08-20T10:44:08;7.00;;;1.80;;
19782;SDS011;10051;40.294;-3.754;2023-08-20T10:46:35;9.18;;;1.60;;
19782;SDS011;10051;40.294;-3.754;2023-08-20T10:49:16;5.20;;;1.50;;
19782;SDS011;10051;40.294;-3.754;2023-08-20T10:51:42;4.63;;;1.67;;
19782;SDS011;10051;40.294;-3.754;2023-08-20T10:54:12;5.43;;;1.70;;
19782;SDS011;10051;40.294;-3.754;2023-08-20T11:01:51;4.63;;;1.40;;
19782;SDS011;10051;40.294;-3.754;2023-08-20T11:04:28;7.32;;;1.60;;
19782;SDS011;10051;40.294;-3.754;2023-08-20T11:06:57;5.40;;;1.50;;
19782;SDS011;10051;40.294;-3.754;2023-08-20T11:09:28;5.40;;;1.55;;
19782;SDS011;10051;40.294;-3.754;2023-08-20T11:11:56;5.05;;;1.40;;
19782;SDS011;10051;40.294;-3.754;2023-08-20T11:14:23;7.03;;;1.45;;
19782;SDS011;10051;40.294;-3.754;2023-08-20T11:16:52;5.90;;;1.60;;
19782;SDS011;10051;40.294;-3.754;2023-08-20T11:19:21;6.45;;;1.40;;
19782;SDS011;10051;40.294;-3.754;2023-08-20T11:21:51;6.40;;;1.45;;
19782;SDS011;10051;40.294;-3.754;2023-08-20T11:24:29;6.65;;;1.55;;
19782;SDS011;10051;40.294;-3.754;2023-08-20T11:26:55;9.98;;;1.38;;
19782;SDS011;10051;40.294;-3.754;2023-08-20T11:29:20;6.15;;;1.55;;
19782;SDS011;10051;40.294;-3.754;2023-08-20T11:31:46;5.45;;;1.40;;
19782;SDS011;10051;40.294;-3.754;2023-08-20T11:34:13;10.52;;;1.50;;
19782;SDS011;10051;40.294;-3.754;2023-08-20T11:36:39;5.13;;;1.38;;
19782;SDS011;10051;40.294;-3.754;2023-08-20T11:39:08;4.68;;;1.38;;
19782;SDS011;10051;40.294;-3.754;2023-08-20T11:41:38;4.15;;;1.52;;
19782;SDS011;10051;40.294;-3.754;2023-08-20T11:44:09;6.47;;;1.35;;
19782;SDS011;10051;40.294;-3.754;2023-08-20T11:46:41;3.28;;;1.30;;
19782;SDS011;10051;40.294;-3.754;2023-08-20T11:49:11;6.45;;;1.30;;
19782;SDS011;10051;40.294;-3.754;2023-08-20T11:51:38;3.42;;;1.23;;
19782;SDS011;10051;40.294;-3.754;2023-08-20T11:54:17;4.50;;;1.30;;
19782;SDS011;10051;40.294;-3.754;2023-08-20T11:56:47;6.50;;;1.17;;
19782;SDS011;10051;40.294;-3.754;2023-08-20T11:59:18;4.13;;;1.20;;
19782;SDS011;10051;40.294;-3.754;2023-08-20T12:01:51;3.17;;;1.00;;
19782;SDS011;10051;40.294;-3.754;2023-08-20T12:04:17;5.20;;;1.13;;
19782;SDS011;10051;40.294;-3.754;2023-08-20T12:06:52;4.07;;;1.20;;
19782;SDS011;10051;40.294;-3.754;2023-08-20T12:09:44;3.45;;;1.08;;
19782;SDS011;10051;40.294;-3.754;2023-08-20T12:12:13;2.47;;;1.10;;
19782;SDS011;10051;40.294;-3.754;2023-08-20T12:14:51;1.60;;;0.98;;
19782;SDS011;10051;40.294;-3.754;2023-08-20T12:17:20;2.05;;;1.08;;
19782;SDS011;10051;40.294;-3.754;2023-08-20T12:19:53;4.80;;;1.20;;
19782;SDS011;10051;40.294;-3.754;2023-08-20T12:22:28;3.55;;;1.20;;
19782;SDS011;10051;40.294;-3.754;2023-08-20T12:24:55;3.72;;;1.80;;
19782;SDS011;10051;40.294;-3.754;2023-08-20T12:27:23;5.07;;;1.50;;
19782;SDS011;10051;40.294;-3.754;2023-08-20T12:29:50;3.67;;;1.30;;
19782;SDS011;10051;40.294;-3.754;2023-08-20T12:32:19;3.72;;;1.17;;
19782;SDS011;10051;40.294;-3.754;2023-08-20T12:34:45;4.22;;;0.93;;
19782;SDS011;10051;40.294;-3.754;2023-08-20T12:37:12;2.60;;;1.00;;
19782;SDS011;10051;40.294;-3.754;2023-08-20T12:39:38;6.75;;;1.00;;
19782;SDS011;10051;40.294;-3.754;2023-08-20T12:42:03;2.78;;;1.10;;
19782;SDS011;10051;40.294;-3.754;2023-08-20T12:44:30;2.78;;;1.00;;
19782;SDS011;10051;40.294;-3.754;2023-08-20T12:46:56;3.13;;;0.85;;
19782;SDS011;10051;40.294;-3.754;2023-08-20T12:49:21;2.47;;;1.00;;
19782;SDS011;10051;40.294;-3.754;2023-08-20T12:51:47;1.85;;;0.85;;
19782;SDS011;10051;40.294;-3.754;2023-08-20T12:54:13;4.35;;;1.00;;
19782;SDS011;10051;40.294;-3.754;2023-08-20T12:56:39;1.95;;;0.90;;
19782;SDS011;10051;40.294;-3.754;2023-08-20T12:59:04;1.30;;;0.70;;
19782;SDS011;10051;40.294;-3.754;2023-08-20T13:01:30;4.07;;;0.90;;
19782;SDS011;10051;40.294;-3.754;2023-08-20T13:03:56;4.00;;;0.90;;
19782;SDS011;10051;40.294;-3.754;2023-08-20T13:06:22;3.10;;;1.00;;
19782;SDS011;10051;40.294;-3.754;2023-08-20T13:08:48;3.88;;;0.93;;
19782;SDS011;10051;40.294;-3.754;2023-08-20T13:11:16;1.67;;;0.70;;
19782;SDS011;10051;40.294;-3.754;2023-08-20T13:13:42;2.78;;;0.70;;
19782;SDS011;10051;40.294;-3.754;2023-08-20T13:16:08;2.15;;;0.90;;
19782;SDS011;10051;40.294;-3.754;2023-08-20T13:18:34;1.65;;;0.70;;
19782;SDS011;10051;40.294;-3.754;2023-08-20T13:21:01;2.75;;;0.73;;
19782;SDS011;10051;40.294;-3.754;2023-08-20T13:23:29;4.55;;;0.70;;
19782;SDS011;10051;40.294;-3.754;2023-08-20T13:25:54;2.13;;;0.70;;
19782;SDS011;10051;40.294;-3.754;2023-08-20T13:28:20;3.30;;;0.95;;
19782;SDS011;10051;40.294;-3.754;2023-08-20T13:30:46;1.67;;;0.70;;
19782;SDS011;10051;40.294;-3.754;2023-08-20T13:33:15;3.22;;;0.80;;
19782;SDS011;10051;40.294;-3.754;2023-08-20T13:35:43;1.90;;;0.70;;
19782;SDS011;10051;40.294;-3.754;2023-08-20T13:38:12;4.97;;;0.80;;
19782;SDS011;10051;40.294;-3.754;2023-08-20T13:40:37;1.52;;;0.80;;
19782;SDS011;10051;40.294;-3.754;2023-08-20T13:43:06;2.60;;;0.90;;
19782;SDS011;10051;40.294;-3.754;2023-08-20T13:45:34;3.88;;;0.82;;
19782;SDS011;10051;40.294;-3.754;2023-08-20T13:48:00;3.00;;;0.80;;
19782;SDS011;10051;40.294;-3.754;2023-08-20T13:50:26;4.72;;;0.90;;
19782;SDS011;10051;40.294;-3.754;2023-08-20T13:52:52;1.17;;;0.70;;
19782;SDS011;10051;40.294;-3.754;2023-08-20T13:55:19;2.30;;;0.80;;
19782;SDS011;10051;40.294;-3.754;2023-08-20T13:57:46;2.33;;;0.77;;
19782;SDS011;10051;40.294;-3.754;2023-08-20T14:00:15;1.77;;;0.70;;
19782;SDS011;10051;40.294;-3.754;2023-08-20T14:02:41;1.17;;;0.52;;
19782;SDS011;10051;40.294;-3.754;2023-08-20T14:05:08;3.08;;;0.70;;
19782;SDS011;10051;40.294;-3.754;2023-08-20T14:07:34;2.97;;;0.82;;
19782;SDS011;10051;40.294;-3.754;2023-08-20T14:10:02;3.38;;;0.70;;
19782;SDS011;10051;40.294;-3.754;2023-08-20T14:12:33;2.15;;;0.60;;
19782;SDS011;10051;40.294;-3.754;2023-08-20T14:15:03;3.00;;;1.00;;
19782;SDS011;10051;40.294;-3.754;2023-08-20T14:17:34;4.00;;;0.90;;
19782;SDS011;10051;40.294;-3.754;2023-08-20T14:20:01;2.33;;;0.85;;
19782;SDS011;10051;40.294;-3.754;2023-08-20T14:22:27;2.38;;;0.80;;
19782;SDS011;10051;40.294;-3.754;2023-08-20T14:24:54;2.55;;;0.73;;
19782;SDS011;10051;40.294;-3.754;2023-08-20T14:27:20;1.90;;;0.88;;
19782;SDS011;10051;40.294;-3.754;2023-08-20T14:29:47;3.72;;;0.73;;
19782;SDS011;10051;40.294;-3.754;2023-08-20T14:32:13;2.55;;;0.60;;
19782;SDS011;10051;40.294;-3.754;2023-08-20T14:34:39;2.45;;;0.70;;
19782;SDS011;10051;40.294;-3.754;2023-08-20T14:37:05;2.13;;;0.70;;
19782;SDS011;10051;40.294;-3.754;2023-08-20T14:39:31;2.75;;;0.85;;
19782;SDS011;10051;40.294;-3.754;2023-08-20T14:41:57;1.48;;;0.70;;
19782;SDS011;10051;40.294;-3.754;2023-08-20T14:44:24;1.30;;;0.52;;
19782;SDS011;10051;40.294;-3.754;2023-08-20T14:46:49;3.10;;;0.60;;
19782;SDS011;10051;40.294;-3.754;2023-08-20T14:49:15;1.35;;;0.80;;
19782;SDS011;10051;40.294;-3.754;2023-08-20T14:51:43;1.13;;;0.70;;
19782;SDS011;10051;40.294;-3.754;2023-08-20T14:54:09;3.30;;;0.65;;
19782;SDS011;10051;40.294;-3.754;2023-08-20T14:56:35;2.38;;;0.70;;
19782;SDS011;10051;40.294;-3.754;2023-08-20T14:59:01;2.03;;;0.60;;
19782;SDS011;10051;40.294;-3.754;2023-08-20T15:01:29;4.95;;;0.75;;
19782;SDS011;10051;40.294;-3.754;2023-08-20T15:03:55;1.73;;;0.60;;
19782;SDS011;10051;40.294;-3.754;2023-08-20T15:06:21;1.15;;;0.60;;
19782;SDS011;10051;40.294;-3.754;2023-08-20T15:08:49;2.28;;;0.60;;
19782;SDS011;10051;40.294;-3.754;2023-08-20T15:11:15;2.40;;;0.52;;
19782;SDS011;10051;40.294;-3.754;2023-08-20T15:13:41;1.77;;;0.60;;
19782;SDS011;10051;40.294;-3.754;2023-08-20T15:16:07;1.23;;;0.60;;
19782;SDS011;10051;40.294;-3.754;2023-08-20T15:18:33;1.35;;;0.50;;
19782;SDS011;10051;40.294;-3.754;2023-08-20T15:20:59;0.82;;;0.63;;
19782;SDS011;10051;40.294;-3.754;2023-08-20T15:23:26;0.95;;;0.57;;
19782;SDS011;10051;40.294;-3.754;2023-08-20T15:25:53;2.40;;;0.60;;
19782;SDS011;10051;40.294;-3.754;2023-08-20T15:28:21;2.60;;;0.60;;
19782;SDS011;10051;40.294;-3.754;2023-08-20T15:30:51;0.63;;;0.45;;
19782;SDS011;10051;40.294;-3.754;2023-08-20T15:33:17;0.82;;;0.47;;
19782;SDS011;10051;40.294;-3.754;2023-08-20T15:35:49;1.20;;;0.50;;
19782;SDS011;10051;40.294;-3.754;2023-08-20T15:38:15;2.38;;;0.60;;
19782;SDS011;10051;40.294;-3.754;2023-08-20T15:40:47;1.55;;;0.50;;
19782;SDS011;10051;40.294;-3.754;2023-08-20T15:43:13;0.57;;;0.50;;
19782;SDS011;10051;40.294;-3.754;2023-08-20T15:45:39;1.75;;;0.50;;